Aérodrome :
LOGIN :

S'inscrire | Disclaimer

   EN    FR    IT 

 










Légende :    VFR   VFR Marginal   IFR   IFR Intensif   IFR Très Intensif
Visi : 
Plafond : 
>= 8 km
>= 3000ft
5 à 8 km
1000 à 3000 ft
1500m à 5 km
500 à 1000 ft
800 à 1500m
200 à 500 ft
< 800m
< 200 ft
Symboles :   Orages  Brouillard  Fortes neiges  Fortes précipitations  Vent > 20 kt
SIGMETs :   Divers  Orages  Givrage  Turbulence  Onde Orograph.  Cendres Volcan.






- Altitude de l'aérodrome : 220 ft
- Code IATA : CWL


EGFF - Cardiff Rhoose

DERNIER METAR :
  • 200320Z AUTO 06007KT 9999 NCD 05/01 Q1027

METARs EXPIRÉS :
  • 200250Z AUTO 06007KT 9999 NCD 06/01 Q1027
  • 200220Z AUTO 07008KT 9999 NCD 07/01 Q1026
  • 200150Z AUTO 07011KT 9999 NCD 07/02 Q1026
  • 200120Z AUTO 06008KT 9999 NCD 07/04 Q1026
  • 200050Z AUTO 04008KT 9999 NCD 07/03 Q1025
  • 200020Z AUTO 03008KT 9999 NCD 07/03 Q1025
  • 192350Z AUTO 02008KT 9999 NCD 07/02 Q1025
  • 192320Z AUTO 02007KT 9999 NCD 07/02 Q1025
  • 192250Z AUTO 02008KT 9999 NCD 07/02 Q1025

TAF TAF EGFF
Valide du 20 à 00h jusqu'au 21 à 00h UTC


192253Z 2000/2024 05008KT 9999 FEW030
ATIS : +44 1446 729 319



MET'MAP, la Météo Aéronautique d'un coup d'oeil ! - Copyright ORBIFLY Décembre 2007 - Disclaimer

ORBIFLY MET'MAP TEAM :

Programmation & Développement : Alexandra Zaïnal
Sur une idée originale de : Baudouin d'Aumeries
Soutien technique & logistique : Manuel Goepfert
Assistance : Marc-Olivier Méhu




SOURCES & CREDITS :

   NOAA